Terminal Aerodrome Forecast
Issued by NWS Cleveland, OH

Home | Current Version | Previous Version | Text Only | Print | Product List | Glossary On
Versions: 1 2 3 4 5 6 7 8 9 10 11 12 13 14 15 16 17 18 19 20 21 22 23 24 25 26
294
FTUS41 KCLE 072331
TAFCLE
TAF
KCLE 072331Z 0800/0906 20012KT P6SM SCT050 BKN120
     FM080800 20008KT P6SM -RA OVC045
      TEMPO 0808/0812 5SM -RASN BR OVC025
     FM081200 20006KT 1SM -SN BR OVC006
     FM081800 28008KT 5SM -RASN BR OVC012=

USA.gov is the U.S. government's official web portal to all federal, state and local government web resources and services.